Time;durP1;ratioP1;P1;durP2;ratioP2;P2;SDS_P1;SDS_P2;PMS_P1;PMS_P2;Temp;Humidity;BMP_temperature;BMP_pressure;BME280_temperature;BME280_humidity;BME280_pressure;Samples;Min_cycle;Max_cycle;Signal;HPM_P1;HPM_P2
2022/04/03 00:00:21;;;;;;;4.53;2.67;;;1.40;99.90;;;;;;7220961;32;20203;-61
2022/04/03 00:04:24;;;;;;;5.20;3.10;;;1.50;99.90;;;;;;7249100;32;20228;-62
2022/04/03 00:08:28;;;;;;;4.35;2.65;;;1.40;99.90;;;;;;7248538;32;20290;-60
2022/04/03 00:12:29;;;;;;;5.10;2.92;;;1.40;99.90;;;;;;7247085;32;20109;-59
2022/04/03 00:16:32;;;;;;;4.75;2.75;;;1.40;99.90;;;;;;7246834;32;20694;-58
2022/04/03 00:20:38;;;;;;;4.15;2.33;;;1.40;99.90;;;;;;7247675;32;20199;-58
2022/04/03 00:24:41;;;;;;;8.02;2.40;;;1.40;99.90;;;;;;7249576;32;20108;-58
2022/04/03 00:28:43;;;;;;;5.32;2.60;;;1.40;99.90;;;;;;7251494;32;20252;-59
2022/04/03 00:32:44;;;;;;;3.80;2.47;;;1.40;99.90;;;;;;7247396;32;20574;-59
2022/04/03 00:36:46;;;;;;;3.65;2.50;;;1.40;99.90;;;;;;7246183;32;20485;-59
2022/04/03 00:40:48;;;;;;;8.23;2.70;;;1.30;99.90;;;;;;7245822;32;20113;-59
2022/04/03 00:44:50;;;;;;;5.72;2.42;;;1.30;99.90;;;;;;7247610;32;20137;-59
2022/04/03 00:48:52;;;;;;;7.78;3.75;;;1.20;99.90;;;;;;7240506;32;20192;-59
2022/04/03 00:52:54;;;;;;;3.85;2.35;;;1.20;99.90;;;;;;7244089;32;20547;-58
2022/04/03 00:56:56;;;;;;;5.70;2.37;;;1.10;99.90;;;;;;7219444;32;20124;-58
2022/04/03 01:00:58;;;;;;;3.30;2.25;;;1.10;99.90;;;;;;7245205;32;20100;-58
2022/04/03 01:05:00;;;;;;;4.82;2.80;;;1.10;99.90;;;;;;7244347;32;20112;-58
2022/04/03 01:09:03;;;;;;;4.75;2.45;;;1.00;99.90;;;;;;7243509;32;20241;-58
2022/04/03 01:13:05;;;;;;;5.75;2.75;;;1.00;99.90;;;;;;7232092;32;20559;-58
2022/04/03 01:17:10;;;;;;;4.70;2.20;;;0.90;99.90;;;;;;7230679;32;20195;-58
2022/04/03 01:21:13;;;;;;;4.97;2.75;;;0.90;99.90;;;;;;7244446;32;20682;-58
2022/04/03 01:25:15;;;;;;;5.28;2.60;;;1.00;99.90;;;;;;7226595;32;20189;-57
2022/04/03 01:29:17;;;;;;;4.40;2.35;;;0.90;99.90;;;;;;7227950;32;20101;-58
2022/04/03 01:33:19;;;;;;;6.00;2.53;;;1.00;99.90;;;;;;7213361;32;20231;-59
2022/04/03 01:37:21;;;;;;;4.07;2.40;;;1.00;99.90;;;;;;7230834;32;20570;-60
2022/04/03 01:41:23;;;;;;;4.43;2.58;;;0.90;99.90;;;;;;7227304;32;20123;-57
2022/04/03 01:45:24;;;;;;;7.15;2.90;;;0.80;99.90;;;;;;7218840;32;20219;-59
2022/04/03 01:49:26;;;;;;;4.55;2.30;;;0.70;99.90;;;;;;7243273;32;20128;-58
2022/04/03 01:53:28;;;;;;;4.30;2.50;;;0.60;99.90;;;;;;7215839;32;20096;-58
2022/04/03 01:57:30;;;;;;;5.70;2.47;;;0.50;99.90;;;;;;7242360;32;20104;-58
2022/04/03 02:01:33;;;;;;;4.53;2.60;;;0.50;99.90;;;;;;7229881;32;20128;-58
2022/04/03 02:05:34;;;;;;;4.18;2.33;;;0.40;99.90;;;;;;7223513;32;20230;-60
2022/04/03 02:09:37;;;;;;;3.50;2.30;;;0.30;99.90;;;;;;7229788;32;20127;-57
2022/04/03 02:13:38;;;;;;;4.75;2.40;;;0.30;99.90;;;;;;7218715;32;20195;-58
2022/04/03 02:17:40;;;;;;;5.93;2.70;;;0.30;99.90;;;;;;7231094;32;20184;-58
2022/04/03 02:21:42;;;;;;;5.03;2.85;;;0.20;99.90;;;;;;7230189;32;20120;-58
2022/04/03 02:25:45;;;;;;;5.03;3.03;;;0.20;99.90;;;;;;7211047;32;20183;-58
2022/04/03 02:29:47;;;;;;;3.55;2.47;;;0.30;99.90;;;;;;7233414;32;20104;-58
2022/04/03 02:33:48;;;;;;;6.60;2.62;;;0.30;99.90;;;;;;7242375;32;20323;-58
2022/04/03 02:37:50;;;;;;;4.70;2.90;;;0.30;99.90;;;;;;7243460;32;20359;-58
2022/04/03 02:41:52;;;;;;;7.10;3.03;;;0.40;99.90;;;;;;7247921;32;20114;-59
2022/04/03 02:45:53;;;;;;;6.00;3.08;;;0.30;99.90;;;;;;7248258;32;20100;-60
2022/04/03 02:49:55;;;;;;;4.40;2.78;;;0.20;99.90;;;;;;7247278;32;20126;-59
2022/04/03 02:53:57;;;;;;;6.35;2.60;;;0.20;99.90;;;;;;7235623;32;20104;-59
2022/04/03 02:57:58;;;;;;;5.85;2.85;;;0.20;99.90;;;;;;7246082;32;20104;-58
2022/04/03 03:02:00;;;;;;;5.90;2.90;;;0.10;99.90;;;;;;7247624;32;20119;-58
2022/04/03 03:06:02;;;;;;;4.90;2.85;;;0.10;99.90;;;;;;7233041;32;20151;-59
2022/04/03 03:10:06;;;;;;;4.78;2.45;;;0.00;99.90;;;;;;7245354;32;20213;-59
2022/04/03 03:14:07;;;;;;;5.47;2.83;;;-0.10;99.90;;;;;;7246483;32;20104;-59
2022/04/03 03:18:09;;;;;;;5.47;2.80;;;-0.10;99.90;;;;;;7245846;32;20223;-59
2022/04/03 03:22:11;;;;;;;4.90;2.92;;;-0.10;99.90;;;;;;7233760;32;20100;-57
2022/04/03 03:26:12;;;;;;;3.25;2.40;;;-0.10;99.90;;;;;;7220316;32;20124;-57
2022/04/03 03:30:14;;;;;;;6.57;3.15;;;0.00;99.90;;;;;;7218854;32;20716;-59
2022/04/03 03:34:16;;;;;;;3.70;2.70;;;0.00;99.90;;;;;;7232423;32;20284;-58
2022/04/03 03:38:18;;;;;;;5.95;3.05;;;-0.10;99.90;;;;;;7245932;32;20122;-59
2022/04/03 03:42:20;;;;;;;6.65;2.97;;;0.00;99.90;;;;;;7245868;32;20101;-58
2022/04/03 03:46:22;;;;;;;5.10;2.90;;;-0.10;99.90;;;;;;7231357;32;20097;-58
2022/04/03 03:50:24;;;;;;;6.50;3.00;;;-0.30;99.90;;;;;;7217378;32;20804;-59
2022/04/03 03:54:26;;;;;;;6.32;2.87;;;-0.30;99.90;;;;;;7231466;32;20104;-59
2022/04/03 03:58:28;;;;;;;6.18;2.75;;;-0.30;99.90;;;;;;7230641;32;20844;-60
2022/04/03 04:02:30;;;;;;;5.20;3.00;;;-0.30;99.90;;;;;;7220137;32;20195;-58
2022/04/03 04:06:31;;;;;;;7.70;3.05;;;-0.50;99.90;;;;;;7231635;32;20218;-59
2022/04/03 04:10:33;;;;;;;3.12;2.33;;;-0.50;99.90;;;;;;7231552;32;20118;-58
2022/04/03 04:14:38;;;;;;;5.57;2.92;;;-0.50;99.90;;;;;;7243501;32;20097;-60
2022/04/03 04:18:40;;;;;;;6.47;2.80;;;-0.50;99.90;;;;;;7216761;32;20614;-58
2022/04/03 04:22:44;;;;;;;4.35;3.03;;;-0.60;99.90;;;;;;7230005;32;20368;-59
2022/04/03 04:26:46;;;;;;;6.62;3.22;;;-0.70;99.90;;;;;;7233285;32;20219;-58
2022/04/03 04:30:47;;;;;;;4.47;2.90;;;-0.70;99.90;;;;;;7232379;32;20203;-58
2022/04/03 04:34:50;;;;;;;5.20;2.78;;;-0.80;99.90;;;;;;7243802;32;20183;-59
2022/04/03 04:38:51;;;;;;;5.05;2.83;;;-0.80;99.90;;;;;;7215591;32;20191;-59
2022/04/03 04:42:55;;;;;;;4.12;2.72;;;-0.90;99.90;;;;;;7243408;32;20440;-59
2022/04/03 04:46:57;;;;;;;5.30;2.78;;;-0.90;99.90;;;;;;7229812;32;20222;-58
2022/04/03 04:50:59;;;;;;;5.68;3.10;;;-0.90;99.90;;;;;;7225566;32;20096;-58
2022/04/03 04:55:05;;;;;;;4.68;2.58;;;-1.00;99.90;;;;;;7244744;32;20151;-60
2022/04/03 04:59:07;;;;;;;5.65;3.12;;;-1.00;99.90;;;;;;7243786;32;20102;-59
2022/04/03 05:03:08;;;;;;;8.32;4.75;;;-1.00;99.90;;;;;;7220674;32;20100;-59
2022/04/03 05:07:11;;;;;;;9.05;5.62;;;-1.00;99.90;;;;;;7231465;32;20183;-58
2022/04/03 05:11:13;;;;;;;24.15;11.70;;;-1.00;99.90;;;;;;7228705;32;20108;-59
2022/04/03 05:15:15;;;;;;;25.80;13.30;;;-1.10;99.90;;;;;;7242121;32;20722;-59
2022/04/03 05:19:17;;;;;;;26.12;12.50;;;-1.10;99.90;;;;;;7231934;32;20220;-60
2022/04/03 05:23:19;;;;;;;18.62;10.20;;;-1.20;99.90;;;;;;7230979;32;20203;-59
2022/04/03 05:27:21;;;;;;;8.50;6.10;;;-1.10;99.90;;;;;;7238742;32;20191;-58
2022/04/03 05:31:26;;;;;;;4.97;3.65;;;-1.20;99.90;;;;;;7238492;32;20113;-59
2022/04/03 05:35:28;;;;;;;6.28;3.10;;;-1.10;99.90;;;;;;7241626;32;20108;-58
2022/04/03 05:39:30;;;;;;;9.93;6.10;;;-1.30;99.90;;;;;;7243171;32;20100;-60
2022/04/03 05:43:31;;;;;;;7.07;5.05;;;-1.40;99.90;;;;;;7241599;32;20130;-59
2022/04/03 05:47:34;;;;;;;7.70;4.97;;;-1.30;99.90;;;;;;7249532;32;20192;-59
2022/04/03 05:51:40;;;;;;;5.80;4.28;;;-1.30;99.90;;;;;;7246324;32;20986;-60
2022/04/03 05:55:42;;;;;;;8.13;4.30;;;-1.30;99.90;;;;;;7236029;32;20105;-61
2022/04/03 05:59:44;;;;;;;7.85;4.30;;;-1.10;99.90;;;;;;7241893;32;20193;-62
2022/04/03 06:03:46;;;;;;;5.10;3.47;;;-1.20;99.90;;;;;;7235106;32;20196;-60
2022/04/03 06:07:48;;;;;;;6.22;3.33;;;-1.10;99.90;;;;;;7243783;32;20528;-62
2022/04/03 06:11:51;;;;;;;8.52;4.07;;;-1.10;99.90;;;;;;7236102;32;20180;-60
2022/04/03 06:15:53;;;;;;;10.82;4.65;;;-1.10;99.90;;;;;;7243641;32;20242;-60
2022/04/03 06:19:56;;;;;;;7.12;3.67;;;-1.10;99.90;;;;;;7241449;32;20204;-60
2022/04/03 06:23:57;;;;;;;5.47;3.80;;;-1.00;99.90;;;;;;7240698;32;20699;-60
2022/04/03 06:27:59;;;;;;;8.88;4.35;;;-1.00;99.90;;;;;;7239053;32;20255;-60
2022/04/03 06:32:01;;;;;;;7.12;4.25;;;-1.00;99.90;;;;;;7238086;32;20104;-61
2022/04/03 06:36:03;;;;;;;7.47;4.35;;;-1.00;99.90;;;;;;7243629;32;20174;-60
2022/04/03 06:40:06;;;;;;;9.32;4.18;;;-0.90;99.90;;;;;;7238814;32;20104;-61
2022/04/03 06:44:08;;;;;;;8.48;4.75;;;-0.90;99.90;;;;;;7238777;32;20117;-59
2022/04/03 06:48:10;;;;;;;8.23;4.20;;;-0.70;99.90;;;;;;7241295;32;20127;-60
2022/04/03 06:52:12;;;;;;;7.12;3.95;;;-0.60;99.90;;;;;;7232623;32;20100;-60
2022/04/03 06:56:14;;;;;;;6.70;4.62;;;-0.50;99.90;;;;;;7239136;32;20119;-60
2022/04/03 07:00:16;;;;;;;7.70;3.85;;;-0.30;99.90;;;;;;7240693;32;20207;-61
2022/04/03 07:04:18;;;;;;;9.32;3.80;;;-0.20;99.90;;;;;;7242338;32;20100;-60
2022/04/03 07:08:20;;;;;;;6.47;3.85;;;0.00;99.90;;;;;;7240955;32;20123;-60
2022/04/03 07:12:22;;;;;;;6.55;3.55;;;0.00;99.90;;;;;;7246171;32;20207;-60
2022/04/03 07:16:24;;;;;;;8.02;3.85;;;0.20;99.90;;;;;;7240974;32;20426;-60
2022/04/03 07:20:26;;;;;;;6.22;3.95;;;0.30;99.90;;;;;;7243149;32;20322;-60
2022/04/03 07:24:28;;;;;;;5.62;3.40;;;0.40;99.90;;;;;;7239779;32;20139;-61
2022/04/03 07:28:30;;;;;;;9.45;4.53;;;0.60;99.90;;;;;;7243966;32;20104;-61
2022/04/03 07:32:32;;;;;;;6.70;4.43;;;0.70;99.90;;;;;;7244546;32;20105;-60
2022/04/03 07:36:33;;;;;;;7.15;3.05;;;0.90;99.90;;;;;;7243791;32;20100;-59
2022/04/03 07:40:35;;;;;;;3.30;1.87;;;1.00;99.90;;;;;;7246187;32;20104;-59
2022/04/03 07:44:55;;;;;;;3.10;1.85;;;1.30;99.90;;;;;;7243789;32;20132;-59
2022/04/03 07:48:57;;;;;;;2.83;1.50;;;1.60;99.90;;;;;;7243691;32;20131;-59
2022/04/03 07:52:59;;;;;;;4.50;1.73;;;1.90;99.90;;;;;;7245737;32;20518;-61
2022/04/03 07:57:00;;;;;;;3.45;1.42;;;2.40;99.90;;;;;;7243604;32;20150;-59
2022/04/03 08:01:03;;;;;;;5.82;1.87;;;3.10;99.90;;;;;;7243984;32;20109;-60
2022/04/03 08:05:06;;;;;;;2.83;1.20;;;3.80;99.90;;;;;;7244006;32;20101;-60
2022/04/03 08:09:08;;;;;;;3.75;1.37;;;4.90;99.90;;;;;;7241584;32;20126;-62
2022/04/03 08:13:09;;;;;;;5.30;1.50;;;5.60;99.90;;;;;;7230459;32;20135;-60
2022/04/03 08:17:11;;;;;;;4.75;2.00;;;6.90;99.90;;;;;;7244161;32;20133;-60
2022/04/03 08:21:13;;;;;;;5.05;1.42;;;7.10;99.90;;;;;;7243460;32;20228;-60
2022/04/03 08:25:15;;;;;;;2.67;1.10;;;7.40;99.90;;;;;;7243497;32;20107;-59
2022/04/03 08:29:17;;;;;;;2.97;1.70;;;8.00;94.20;;;;;;7242907;32;20250;-61
2022/04/03 08:33:19;;;;;;;6.80;1.45;;;8.50;91.70;;;;;;7243073;32;20112;-56
2022/04/03 08:37:20;;;;;;;2.80;1.62;;;8.20;92.90;;;;;;7241148;32;20482;-61
2022/04/03 08:41:22;;;;;;;2.22;1.50;;;8.60;90.30;;;;;;7238928;32;20108;-61
2022/04/03 08:45:24;;;;;;;4.40;1.60;;;9.40;89.50;;;;;;7242240;32;21034;-60
2022/04/03 08:49:30;;;;;;;3.78;2.37;;;10.00;78.90;;;;;;7244773;32;20199;-60
2022/04/03 08:53:32;;;;;;;7.35;2.17;;;10.40;76.00;;;;;;7233417;32;20155;-60
2022/04/03 08:57:34;;;;;;;3.67;2.08;;;10.00;77.60;;;;;;7242557;32;20132;-61
2022/04/03 09:01:35;;;;;;;7.35;2.50;;;10.10;72.20;;;;;;7242482;32;20205;-60
2022/04/03 09:05:39;;;;;;;6.43;3.33;;;9.10;74.40;;;;;;7243481;32;20132;-59
2022/04/03 09:09:40;;;;;;;8.88;2.47;;;8.70;77.10;;;;;;7246361;32;20165;-59
2022/04/03 09:13:43;;;;;;;5.30;1.85;;;7.80;80.40;;;;;;7242973;32;20104;-61
2022/04/03 09:17:49;;;;;;;5.30;2.00;;;7.60;79.10;;;;;;7241881;32;20400;-59
2022/04/03 09:21:57;;;;;;;5.45;1.90;;;7.60;79.60;;;;;;7240802;32;20136;-60
2022/04/03 09:26:14;;;;;;;4.25;1.62;;;7.30;81.30;;;;;;7240220;32;20100;-60
2022/04/03 09:30:19;;;;;;;3.80;1.65;;;6.50;83.30;;;;;;7241382;32;20526;-60
2022/04/03 09:34:20;;;;;;;2.12;1.48;;;6.40;90.50;;;;;;7240749;32;20131;-61
2022/04/03 09:38:23;;;;;;;3.90;1.58;;;6.20;89.10;;;;;;7239726;32;20128;-61
2022/04/03 09:42:24;;;;;;;5.28;1.55;;;6.10;89.00;;;;;;7240599;32;20105;-59
2022/04/03 09:46:29;;;;;;;5.47;1.90;;;5.80;94.30;;;;;;7241446;32;20187;-58
2022/04/03 09:50:31;;;;;;;4.25;2.05;;;5.60;97.00;;;;;;7242589;32;20547;-59
2022/04/03 09:54:33;;;;;;;4.32;2.05;;;5.50;96.30;;;;;;7242421;32;20249;-61
2022/04/03 09:59:00;;;;;;;2.83;1.67;;;5.80;97.90;;;;;;7239666;32;20219;-61
2022/04/03 10:03:02;;;;;;;6.07;2.03;;;5.90;99.70;;;;;;7239223;32;20600;-59
2022/04/03 10:07:05;;;;;;;3.95;1.45;;;5.90;97.70;;;;;;7242401;32;20116;-58
2022/04/03 10:11:08;;;;;;;5.28;1.60;;;5.70;97.50;;;;;;7239000;32;20191;-59
2022/04/03 10:15:10;;;;;;;3.75;1.60;;;5.50;99.90;;;;;;7240169;32;20789;-60
2022/04/03 10:19:12;;;;;;;3.90;1.40;;;5.10;99.90;;;;;;7240874;32;20100;-59
2022/04/03 10:23:14;;;;;;;2.20;1.60;;;5.30;99.90;;;;;;7242844;32;20122;-59
2022/04/03 10:27:24;;;;;;;7.15;1.40;;;5.30;99.90;;;;;;7240028;32;20217;-59
2022/04/03 10:31:26;;;;;;;6.10;1.67;;;5.30;99.90;;;;;;7241092;32;20259;-60
2022/04/03 10:35:28;;;;;;;5.00;1.80;;;5.70;99.90;;;;;;7240153;32;20776;-60
2022/04/03 10:39:30;;;;;;;3.10;1.73;;;5.30;99.90;;;;;;7236975;32;20132;-59
2022/04/03 10:43:37;;;;;;;3.67;2.00;;;5.50;99.90;;;;;;7243214;32;20104;-60
2022/04/03 10:47:40;;;;;;;5.10;2.22;;;5.50;99.90;;;;;;7241935;32;20663;-59
2022/04/03 10:51:42;;;;;;;5.00;2.12;;;5.80;99.90;;;;;;7240624;32;20123;-60
2022/04/03 10:55:54;;;;;;;6.28;2.70;;;5.90;99.90;;;;;;7242497;32;20104;-61
2022/04/03 11:00:14;;;;;;;6.97;2.22;;;6.70;99.90;;;;;;7245606;32;20572;-61
2022/04/03 11:04:16;;;;;;;2.12;1.30;;;7.90;98.00;;;;;;7248896;32;20188;-60
2022/04/03 11:08:38;;;;;;;5.00;1.85;;;8.20;98.30;;;;;;7245344;32;20123;-61
2022/04/03 11:12:44;;;;;;;4.53;1.70;;;9.20;94.40;;;;;;7244587;32;20236;-60
2022/04/03 11:16:50;;;;;;;4.72;1.50;;;8.90;96.60;;;;;;7248218;32;20096;-60
2022/04/03 11:21:25;;;;;;;4.85;1.80;;;9.90;90.40;;;;;;7243956;32;20127;-61
2022/04/03 11:25:26;;;;;;;3.12;1.30;;;10.20;88.10;;;;;;7232436;32;20131;-62
2022/04/03 11:29:28;;;;;;;5.10;1.60;;;10.10;86.00;;;;;;7246907;32;20150;-61
2022/04/03 11:33:31;;;;;;;4.53;2.00;;;10.40;92.50;;;;;;7247739;32;20127;-61
2022/04/03 11:37:33;;;;;;;4.35;1.52;;;9.50;86.50;;;;;;7248936;32;20104;-61
2022/04/03 11:41:36;;;;;;;5.03;1.90;;;8.90;91.00;;;;;;7248617;32;20104;-62
2022/04/03 11:45:54;;;;;;;5.05;1.90;;;8.60;92.90;;;;;;7249650;32;20702;-59
2022/04/03 11:50:06;;;;;;;3.85;1.60;;;8.70;94.10;;;;;;7248938;32;20744;-60
2022/04/03 11:54:09;;;;;;;4.70;1.67;;;8.40;94.40;;;;;;7245173;32;20740;-61
2022/04/03 11:58:11;;;;;;;5.72;1.87;;;8.00;92.10;;;;;;7246492;32;20127;-59
2022/04/03 12:02:15;;;;;;;3.60;1.58;;;7.60;92.30;;;;;;7245577;32;20566;-59
2022/04/03 12:06:18;;;;;;;6.53;1.40;;;7.60;97.70;;;;;;7228288;32;20219;-58
2022/04/03 12:10:26;;;;;;;3.87;1.33;;;8.10;99.90;;;;;;7237633;32;20158;-60
2022/04/03 12:14:32;;;;;;;2.35;1.48;;;8.50;94.50;;;;;;7245557;32;20104;-61
2022/04/03 12:19:01;;;;;;;3.72;1.50;;;8.40;93.50;;;;;;7243785;32;20228;-60
2022/04/03 12:23:07;;;;;;;3.15;1.25;;;8.60;95.70;;;;;;7238192;32;20235;-61
2022/04/03 12:27:15;;;;;;;2.57;1.13;;;8.40;96.50;;;;;;7242275;32;20123;-61
2022/04/03 12:31:16;;;;;;;3.33;1.27;;;8.30;92.50;;;;;;7239316;32;20211;-60
2022/04/03 12:35:18;;;;;;;1.98;1.12;;;8.30;93.80;;;;;;7244929;32;20134;-60
2022/04/03 12:39:32;;;;;;;3.25;1.30;;;8.40;95.90;;;;;;7243656;32;20100;-60
2022/04/03 12:43:44;;;;;;;2.53;1.08;;;8.50;98.10;;;;;;7247648;32;20847;-61
2022/04/03 12:47:47;;;;;;;3.08;1.20;;;8.60;94.40;;;;;;7243066;32;20109;-61
2022/04/03 12:51:49;;;;;;;6.03;1.50;;;8.70;96.00;;;;;;7241495;32;20104;-59
2022/04/03 12:55:53;;;;;;;4.95;1.45;;;8.40;94.70;;;;;;7246410;32;20704;-62
2022/04/03 12:59:54;;;;;;;3.20;1.20;;;8.40;95.00;;;;;;7244200;32;20119;-61
2022/04/03 13:04:04;;;;;;;5.03;1.05;;;8.10;94.50;;;;;;7243455;32;20135;-61
2022/04/03 13:08:10;;;;;;;2.03;0.90;;;7.60;98.60;;;;;;7244115;32;20112;-60
2022/04/03 13:12:12;;;;;;;1.95;0.85;;;7.50;99.30;;;;;;7239436;32;20745;-61
2022/04/03 13:16:13;;;;;;;5.22;1.27;;;7.40;99.40;;;;;;7245045;32;20525;-61
2022/04/03 13:20:15;;;;;;;1.75;0.77;;;7.00;99.40;;;;;;7244289;32;20183;-60
2022/04/03 13:24:17;;;;;;;2.67;1.08;;;6.90;99.90;;;;;;7245136;32;20717;-61
2022/04/03 13:28:24;;;;;;;4.12;1.37;;;6.80;99.90;;;;;;7244947;32;20206;-61
2022/04/03 13:32:26;;;;;;;2.47;1.40;;;6.80;99.90;;;;;;7244787;32;20131;-61
2022/04/03 13:36:28;;;;;;;5.60;2.20;;;6.70;99.90;;;;;;7244300;32;20101;-60
2022/04/03 13:40:29;;;;;;;6.75;2.20;;;6.90;99.90;;;;;;7243201;32;20135;-61
2022/04/03 13:44:31;;;;;;;2.42;1.25;;;6.90;99.90;;;;;;7243011;32;20130;-60
2022/04/03 13:48:37;;;;;;;6.85;1.20;;;6.90;99.90;;;;;;7244492;32;20261;-61
2022/04/03 13:52:38;;;;;;;2.30;1.35;;;7.20;99.90;;;;;;7243028;32;20139;-60
2022/04/03 13:56:40;;;;;;;2.40;1.10;;;7.70;99.90;;;;;;7245875;32;20105;-60
2022/04/03 14:00:42;;;;;;;1.27;0.80;;;8.20;99.90;;;;;;7227964;32;20104;-61
2022/04/03 14:04:44;;;;;;;3.33;1.20;;;8.20;99.90;;;;;;7243363;32;20112;-61
2022/04/03 14:08:46;;;;;;;2.12;1.17;;;8.30;99.90;;;;;;7243605;32;20128;-60
2022/04/03 14:12:48;;;;;;;3.25;1.10;;;8.40;99.90;;;;;;7244975;32;20441;-61
2022/04/03 14:16:50;;;;;;;3.92;1.20;;;8.50;99.90;;;;;;7247355;32;20187;-60
2022/04/03 14:20:53;;;;;;;3.00;1.27;;;8.30;99.90;;;;;;7243841;32;20177;-59
2022/04/03 14:24:56;;;;;;;2.10;0.93;;;7.60;99.90;;;;;;7243017;32;20131;-61
2022/04/03 14:28:57;;;;;;;1.45;0.90;;;7.30;99.90;;;;;;7244167;32;20236;-61
2022/04/03 14:32:59;;;;;;;3.67;1.17;;;7.40;99.90;;;;;;7234797;32;20242;-61
2022/04/03 14:37:01;;;;;;;3.33;1.10;;;7.20;99.90;;;;;;7252838;32;20112;-59
2022/04/03 14:41:02;;;;;;;3.87;1.27;;;7.20;99.90;;;;;;7253524;32;20138;-61
2022/04/03 14:45:05;;;;;;;4.25;1.35;;;7.00;99.90;;;;;;7251134;32;20536;-60
2022/04/03 14:49:06;;;;;;;3.53;1.17;;;7.00;99.90;;;;;;7247607;32;20183;-61
2022/04/03 14:53:16;;;;;;;4.55;1.58;;;7.20;99.90;;;;;;7256047;32;20173;-60
2022/04/03 14:57:18;;;;;;;2.20;0.90;;;7.60;99.90;;;;;;7253295;32;20123;-59
2022/04/03 15:01:21;;;;;;;3.05;1.48;;;8.00;99.90;;;;;;7249256;32;20108;-60
2022/04/03 15:05:23;;;;;;;4.50;1.40;;;8.10;99.90;;;;;;7247199;32;20230;-61
2022/04/03 15:09:33;;;;;;;3.85;1.20;;;8.40;99.90;;;;;;7248520;32;20181;-60
2022/04/03 15:13:35;;;;;;;1.58;0.68;;;8.70;99.90;;;;;;7250438;32;20441;-61
2022/04/03 15:17:37;;;;;;;6.30;0.98;;;8.70;99.90;;;;;;7250386;32;20712;-60
2022/04/03 15:21:38;;;;;;;2.47;1.00;;;8.30;99.90;;;;;;7250503;32;20108;-60
2022/04/03 15:25:40;;;;;;;4.28;1.05;;;7.90;99.90;;;;;;7252609;32;20161;-61
2022/04/03 15:29:53;;;;;;;2.30;1.02;;;7.90;99.90;;;;;;7255422;32;20122;-60
2022/04/03 15:33:55;;;;;;;2.17;1.10;;;7.80;99.90;;;;;;7252594;32;20166;-60
2022/04/03 15:37:57;;;;;;;2.37;0.98;;;7.50;99.90;;;;;;7251327;32;20131;-60
2022/04/03 15:41:58;;;;;;;3.62;1.12;;;7.30;99.90;;;;;;7244926;32;20481;-60
2022/04/03 15:46:00;;;;;;;2.42;0.88;;;7.20;99.90;;;;;;7246641;32;20258;-60
2022/04/03 15:50:06;;;;;;;2.70;1.10;;;7.00;99.90;;;;;;7242560;32;20502;-60
2022/04/03 15:54:08;;;;;;;3.08;1.02;;;7.10;99.90;;;;;;7246083;32;20220;-60
2022/04/03 15:58:10;;;;;;;2.17;1.00;;;7.10;99.90;;;;;;7243482;32;20426;-60
2022/04/03 16:02:12;;;;;;;4.70;1.10;;;7.20;99.90;;;;;;7241425;32;20112;-62
2022/04/03 16:06:15;;;;;;;4.20;1.23;;;7.20;99.90;;;;;;7245553;32;20120;-61
2022/04/03 16:10:26;;;;;;;2.12;1.00;;;7.20;99.90;;;;;;7238140;32;20116;-60
2022/04/03 16:14:27;;;;;;;3.80;1.02;;;7.30;99.90;;;;;;7242036;32;20225;-62
2022/04/03 16:18:29;;;;;;;4.50;1.00;;;7.10;99.90;;;;;;7240495;32;20119;-62
2022/04/03 16:22:31;;;;;;;1.90;1.05;;;7.10;99.90;;;;;;7245660;32;20127;-59
2022/04/03 16:26:33;;;;;;;3.72;1.35;;;7.10;99.90;;;;;;7239821;32;20214;-60
2022/04/03 16:30:34;;;;;;;3.60;1.33;;;7.10;99.90;;;;;;7234778;32;20338;-61
2022/04/03 16:34:36;;;;;;;1.60;1.00;;;6.90;99.90;;;;;;7245115;32;20123;-60
2022/04/03 16:38:39;;;;;;;2.20;1.20;;;6.90;99.90;;;;;;7244679;32;20199;-55
2022/04/03 16:42:44;;;;;;;1.73;1.05;;;6.90;99.90;;;;;;7242249;32;20101;-55
2022/04/03 16:46:47;;;;;;;2.12;1.48;;;6.90;99.90;;;;;;7243648;32;20881;-59
2022/04/03 16:50:48;;;;;;;2.22;1.10;;;6.80;99.90;;;;;;7237821;32;20843;-59
2022/04/03 16:54:50;;;;;;;2.45;1.20;;;6.80;99.90;;;;;;7239724;32;20113;-59
2022/04/03 16:58:52;;;;;;;2.75;1.08;;;6.90;99.90;;;;;;7233924;32;20681;-61
2022/04/03 17:02:54;;;;;;;1.67;1.10;;;6.90;99.90;;;;;;7242529;32;20187;-58
2022/04/03 17:06:56;;;;;;;2.92;1.33;;;7.00;99.90;;;;;;7242475;32;20166;-59
2022/04/03 17:10:58;;;;;;;1.87;1.30;;;6.90;99.90;;;;;;7236726;32;20262;-58
2022/04/03 17:15:01;;;;;;;6.97;1.23;;;6.90;99.90;;;;;;7245016;32;20105;-59
2022/04/03 17:19:05;;;;;;;2.17;1.50;;;6.90;99.90;;;;;;7243243;32;20097;-59
2022/04/03 17:23:07;;;;;;;2.22;1.35;;;6.80;99.90;;;;;;7242156;32;20147;-59
2022/04/03 17:27:08;;;;;;;3.78;2.00;;;6.70;99.90;;;;;;7242535;32;20196;-58
2022/04/03 17:31:11;;;;;;;2.95;1.77;;;6.60;99.90;;;;;;7241078;32;20810;-58
2022/04/03 17:35:13;;;;;;;2.50;1.50;;;6.50;99.90;;;;;;7242818;32;20104;-59
2022/04/03 17:39:14;;;;;;;5.40;2.17;;;6.40;99.90;;;;;;7240094;32;20563;-59
2022/04/03 17:43:16;;;;;;;2.58;1.60;;;6.40;99.90;;;;;;7243288;32;20096;-60
2022/04/03 17:47:18;;;;;;;3.03;1.90;;;6.40;99.90;;;;;;7246351;32;20261;-60
2022/04/03 17:51:20;;;;;;;3.55;2.20;;;6.40;99.90;;;;;;7242420;32;20108;-58
2022/04/03 17:55:22;;;;;;;3.08;2.25;;;6.30;99.90;;;;;;7239181;32;20232;-60
2022/04/03 17:59:28;;;;;;;3.70;2.12;;;6.20;99.90;;;;;;7242348;32;20200;-59
2022/04/03 18:03:30;;;;;;;3.08;2.25;;;6.10;99.90;;;;;;7237192;32;20112;-59
2022/04/03 18:07:32;;;;;;;3.87;1.90;;;6.00;99.90;;;;;;7237334;32;20212;-58
2022/04/03 18:11:37;;;;;;;2.90;1.60;;;5.90;99.90;;;;;;7227151;32;21884;-59
2022/04/03 18:15:38;;;;;;;7.03;1.90;;;5.80;99.90;;;;;;7239703;32;20254;-58
2022/04/03 18:19:40;;;;;;;2.85;1.80;;;5.80;99.90;;;;;;7241823;32;20108;-59
2022/04/03 18:23:42;;;;;;;2.35;1.40;;;5.60;99.90;;;;;;7243314;32;20131;-58
2022/04/03 18:27:44;;;;;;;3.37;1.83;;;5.70;99.90;;;;;;7242025;32;20226;-58
2022/04/03 18:31:45;;;;;;;2.08;1.70;;;5.60;99.90;;;;;;7238873;32;20151;-58
2022/04/03 18:35:48;;;;;;;2.40;2.03;;;5.40;99.90;;;;;;7242427;32;20183;-61
2022/04/03 18:39:51;;;;;;;2.83;2.20;;;5.40;99.90;;;;;;7240127;32;20105;-60
2022/04/03 18:43:53;;;;;;;4.22;2.30;;;5.20;99.90;;;;;;7243285;32;20183;-59
2022/04/03 18:47:54;;;;;;;3.75;2.12;;;5.20;99.90;;;;;;7235601;32;20109;-60
2022/04/03 18:51:56;;;;;;;4.80;2.85;;;5.20;99.90;;;;;;7243096;32;20228;-60
2022/04/03 18:55:58;;;;;;;5.40;3.15;;;5.20;99.90;;;;;;7240450;32;20512;-59
2022/04/03 19:00:00;;;;;;;6.20;2.97;;;5.30;99.90;;;;;;7242583;32;20485;-59
2022/04/03 19:04:04;;;;;;;4.32;3.00;;;5.30;99.90;;;;;;7239724;32;20103;-60
2022/04/03 19:08:11;;;;;;;7.57;2.70;;;5.20;99.90;;;;;;7242353;32;20135;-61
2022/04/03 19:12:12;;;;;;;6.18;3.72;;;5.30;99.90;;;;;;7242058;32;20198;-60
2022/04/03 19:16:14;;;;;;;7.03;3.92;;;5.20;99.90;;;;;;7242455;32;20243;-61
2022/04/03 19:20:16;;;;;;;6.25;3.45;;;5.30;99.90;;;;;;7243041;32;20213;-60
2022/04/03 19:24:18;;;;;;;6.32;3.12;;;5.30;99.90;;;;;;7246071;32;20231;-60
2022/04/03 19:28:20;;;;;;;6.70;2.65;;;5.20;99.90;;;;;;7246917;32;20659;-61
2022/04/03 19:32:21;;;;;;;4.82;2.90;;;5.30;99.90;;;;;;7247076;32;20323;-62
2022/04/03 19:36:24;;;;;;;3.55;2.75;;;5.30;99.90;;;;;;7244744;32;20127;-61
2022/04/03 19:40:26;;;;;;;4.97;3.08;;;5.30;99.90;;;;;;7245676;32;20608;-61
2022/04/03 19:44:29;;;;;;;7.07;3.35;;;5.40;99.90;;;;;;7249348;32;20222;-61
2022/04/03 19:48:30;;;;;;;3.42;2.78;;;5.20;99.90;;;;;;7241515;32;20139;-62
2022/04/03 19:52:33;;;;;;;6.12;2.92;;;5.20;99.90;;;;;;7246387;32;20096;-61
2022/04/03 19:56:35;;;;;;;5.68;3.28;;;5.00;99.90;;;;;;7245412;32;20104;-59
2022/04/03 20:00:37;;;;;;;6.57;2.87;;;5.00;99.90;;;;;;7244285;32;20127;-61
2022/04/03 20:04:43;;;;;;;6.07;2.85;;;4.90;99.90;;;;;;7244420;32;20195;-60
2022/04/03 20:08:44;;;;;;;4.45;2.58;;;4.70;99.90;;;;;;7241053;32;20126;-60
2022/04/03 20:12:46;;;;;;;4.87;3.37;;;4.60;99.90;;;;;;7244993;32;20127;-60
2022/04/03 20:16:48;;;;;;;4.57;2.80;;;4.40;99.90;;;;;;7246944;32;20135;-60
2022/04/03 20:20:49;;;;;;;4.12;2.70;;;4.20;99.90;;;;;;7244810;32;20659;-62
2022/04/03 20:24:52;;;;;;;4.53;3.00;;;4.20;99.90;;;;;;7248014;32;20120;-60
2022/04/03 20:28:54;;;;;;;5.20;2.75;;;4.10;99.90;;;;;;7246005;32;20223;-61
2022/04/03 20:32:55;;;;;;;5.65;2.97;;;4.00;99.90;;;;;;7244855;32;20105;-60
2022/04/03 20:36:57;;;;;;;8.88;5.07;;;3.90;99.90;;;;;;7241437;32;20139;-60
2022/04/03 20:40:59;;;;;;;8.75;4.93;;;3.70;99.90;;;;;;7240930;32;20105;-59
2022/04/03 20:45:00;;;;;;;6.40;4.30;;;3.50;99.90;;;;;;7244324;32;20219;-60
2022/04/03 20:49:02;;;;;;;8.77;4.50;;;3.30;99.90;;;;;;7243535;32;20138;-59
2022/04/03 20:53:05;;;;;;;5.68;4.03;;;3.10;99.90;;;;;;7243973;32;20936;-59
2022/04/03 20:57:07;;;;;;;6.03;4.37;;;3.00;99.90;;;;;;7238463;32;20130;-60
2022/04/03 21:01:10;;;;;;;5.00;4.00;;;2.90;99.90;;;;;;7242713;32;20680;-59
2022/04/03 21:05:12;;;;;;;9.18;5.12;;;2.70;99.90;;;;;;7242657;32;20119;-63
2022/04/03 21:09:13;;;;;;;4.62;3.92;;;2.70;99.90;;;;;;7234801;32;20192;-60
2022/04/03 21:13:17;;;;;;;6.60;4.28;;;2.60;99.90;;;;;;7241867;32;20202;-60
2022/04/03 21:17:20;;;;;;;6.00;4.03;;;2.50;99.90;;;;;;7241237;32;20234;-60